sensor_id;sensor_type;location;lat;lon;timestamp;pressure;altitude;pressure_sealevel;temperature;humidity
45253;BME280;63171;50.520;30.486;2023-10-31T00:00:22;99748.28;;;15.61;71.14
45253;BME280;63171;50.520;30.486;2023-10-31T00:01:14;99751.88;;;15.60;71.25
45253;BME280;63171;50.520;30.486;2023-10-31T00:02:04;99745.16;;;15.56;71.07
45253;BME280;63171;50.520;30.486;2023-10-31T00:02:53;99741.97;;;15.53;70.87
45253;BME280;63171;50.520;30.486;2023-10-31T00:03:43;99737.66;;;15.52;71.09
45253;BME280;63171;50.520;30.486;2023-10-31T00:04:33;99746.97;;;15.56;71.25
45253;BME280;63171;50.520;30.486;2023-10-31T00:05:23;99748.06;;;15.53;71.12
45253;BME280;63171;50.520;30.486;2023-10-31T00:06:14;99751.69;;;15.52;71.12
45253;BME280;63171;50.520;30.486;2023-10-31T00:07:03;99740.53;;;15.49;71.10
45253;BME280;63171;50.520;30.486;2023-10-31T00:07:53;99742.03;;;15.42;71.09
45253;BME280;63171;50.520;30.486;2023-10-31T00:08:43;99741.19;;;15.41;71.04
45253;BME280;63171;50.520;30.486;2023-10-31T00:09:32;99738.94;;;15.36;71.07
45253;BME280;63171;50.520;30.486;2023-10-31T00:10:22;99750.00;;;15.30;70.94
45253;BME280;63171;50.520;30.486;2023-10-31T00:11:12;99736.09;;;15.28;71.21
45253;BME280;63171;50.520;30.486;2023-10-31T00:12:02;99745.81;;;15.28;71.09
45253;BME280;63171;50.520;30.486;2023-10-31T00:13:11;99739.72;;;15.27;71.25
45253;BME280;63171;50.520;30.486;2023-10-31T00:14:00;99750.06;;;15.19;71.23
45253;BME280;63171;50.520;30.486;2023-10-31T00:14:51;99742.13;;;15.19;71.38
45253;BME280;63171;50.520;30.486;2023-10-31T00:15:40;99745.13;;;15.26;71.59
45253;BME280;63171;50.520;30.486;2023-10-31T00:16:31;99745.41;;;15.32;71.64
45253;BME280;63171;50.520;30.486;2023-10-31T00:17:21;99740.53;;;15.28;71.75
45253;BME280;63171;50.520;30.486;2023-10-31T00:18:11;99746.66;;;15.28;71.80
45253;BME280;63171;50.520;30.486;2023-10-31T00:19:00;99737.06;;;15.27;71.92
45253;BME280;63171;50.520;30.486;2023-10-31T00:19:50;99744.59;;;15.32;72.02
45253;BME280;63171;50.520;30.486;2023-10-31T00:20:39;99738.34;;;15.33;72.07
45253;BME280;63171;50.520;30.486;2023-10-31T00:21:29;99743.38;;;15.36;72.16
45253;BME280;63171;50.520;30.486;2023-10-31T00:22:19;99744.53;;;15.43;72.31
45253;BME280;63171;50.520;30.486;2023-10-31T00:23:08;99741.75;;;15.45;72.47
45253;BME280;63171;50.520;30.486;2023-10-31T00:23:58;99744.97;;;15.48;72.43
45253;BME280;63171;50.520;30.486;2023-10-31T00:24:48;99746.06;;;15.46;72.41
45253;BME280;63171;50.520;30.486;2023-10-31T00:25:38;99745.81;;;15.49;72.42
45253;BME280;63171;50.520;30.486;2023-10-31T00:26:28;99743.91;;;15.51;72.53
45253;BME280;63171;50.520;30.486;2023-10-31T00:27:17;99738.75;;;15.49;72.40
45253;BME280;63171;50.520;30.486;2023-10-31T00:28:07;99736.94;;;15.50;72.52
45253;BME280;63171;50.520;30.486;2023-10-31T00:28:57;99738.00;;;15.47;72.42
45253;BME280;63171;50.520;30.486;2023-10-31T00:29:47;99732.03;;;15.45;72.39
45253;BME280;63171;50.520;30.486;2023-10-31T00:30:36;99719.63;;;15.36;72.39
45253;BME280;63171;50.520;30.486;2023-10-31T00:31:26;99720.34;;;15.38;72.33
45253;BME280;63171;50.520;30.486;2023-10-31T00:32:18;99725.34;;;15.41;72.43
45253;BME280;63171;50.520;30.486;2023-10-31T00:33:08;99724.19;;;15.34;72.30
45253;BME280;63171;50.520;30.486;2023-10-31T00:33:57;99722.78;;;15.30;72.34
45253;BME280;63171;50.520;30.486;2023-10-31T00:34:48;99729.47;;;15.34;72.33
45253;BME280;63171;50.520;30.486;2023-10-31T00:35:37;99723.94;;;15.37;72.33
45253;BME280;63171;50.520;30.486;2023-10-31T00:36:28;99719.63;;;15.36;72.37
45253;BME280;63171;50.520;30.486;2023-10-31T00:37:17;99724.91;;;15.36;72.44
45253;BME280;63171;50.520;30.486;2023-10-31T00:38:06;99722.00;;;15.39;72.46
45253;BME280;63171;50.520;30.486;2023-10-31T00:38:57;99723.34;;;15.33;72.35
45253;BME280;63171;50.520;30.486;2023-10-31T00:39:46;99721.41;;;15.35;72.47
45253;BME280;63171;50.520;30.486;2023-10-31T00:40:35;99713.38;;;15.37;72.49
45253;BME280;63171;50.520;30.486;2023-10-31T00:41:25;99717.38;;;15.31;72.40
45253;BME280;63171;50.520;30.486;2023-10-31T00:42:15;99715.25;;;15.25;72.28
45253;BME280;63171;50.520;30.486;2023-10-31T00:43:06;99716.09;;;15.26;72.23
45253;BME280;63171;50.520;30.486;2023-10-31T00:43:55;99716.34;;;15.23;72.27
45253;BME280;63171;50.520;30.486;2023-10-31T00:44:45;99717.06;;;15.25;72.26
45253;BME280;63171;50.520;30.486;2023-10-31T00:45:54;99710.56;;;15.29;72.24
45253;BME280;63171;50.520;30.486;2023-10-31T00:46:43;99720.13;;;15.30;72.40
45253;BME280;63171;50.520;30.486;2023-10-31T00:47:36;99717.38;;;15.31;72.47
45253;BME280;63171;50.520;30.486;2023-10-31T00:48:25;99714.59;;;15.33;72.38
45253;BME280;63171;50.520;30.486;2023-10-31T00:49:14;99710.81;;;15.26;72.31
45253;BME280;63171;50.520;30.486;2023-10-31T00:50:05;99704.63;;;15.16;72.16
45253;BME280;63171;50.520;30.486;2023-10-31T00:50:55;99708.50;;;15.12;72.19
45253;BME280;63171;50.520;30.486;2023-10-31T00:51:45;99711.84;;;15.14;72.29
45253;BME280;63171;50.520;30.486;2023-10-31T00:52:35;99715.72;;;15.10;72.29
45253;BME280;63171;50.520;30.486;2023-10-31T00:53:24;99713.38;;;15.16;72.31
45253;BME280;63171;50.520;30.486;2023-10-31T00:54:15;99709.78;;;15.17;72.32
45253;BME280;63171;50.520;30.486;2023-10-31T00:55:05;99706.88;;;15.20;72.34
45253;BME280;63171;50.520;30.486;2023-10-31T00:55:55;99706.03;;;15.20;72.45
45253;BME280;63171;50.520;30.486;2023-10-31T00:56:45;99711.56;;;15.17;72.41
45253;BME280;63171;50.520;30.486;2023-10-31T00:57:35;99710.59;;;15.18;72.45
45253;BME280;63171;50.520;30.486;2023-10-31T00:58:25;99711.31;;;15.20;72.50
45253;BME280;63171;50.520;30.486;2023-10-31T00:59:15;99706.88;;;15.20;72.52
45253;BME280;63171;50.520;30.486;2023-10-31T01:00:05;99712.75;;;15.24;72.55
45253;BME280;63171;50.520;30.486;2023-10-31T01:02:24;99709.28;;;15.23;72.58
45253;BME280;63171;50.520;30.486;2023-10-31T01:03:16;99709.97;;;15.25;72.54
45253;BME280;63171;50.520;30.486;2023-10-31T01:04:06;99709.38;;;15.22;72.63
45253;BME280;63171;50.520;30.486;2023-10-31T01:04:56;99701.72;;;15.19;72.50
45253;BME280;63171;50.520;30.486;2023-10-31T01:05:46;99706.81;;;15.11;72.38
45253;BME280;63171;50.520;30.486;2023-10-31T01:06:39;99722.13;;;15.17;72.54
45253;BME280;63171;50.520;30.486;2023-10-31T01:07:29;99714.91;;;15.19;72.53
45253;BME280;63171;50.520;30.486;2023-10-31T01:08:20;99723.94;;;15.16;72.58
45253;BME280;63171;50.520;30.486;2023-10-31T01:09:09;99718.25;;;15.21;72.67
45253;BME280;63171;50.520;30.486;2023-10-31T01:09:59;99724.13;;;15.24;72.69
45253;BME280;63171;50.520;30.486;2023-10-31T01:10:49;99719.84;;;15.23;72.75
45253;BME280;63171;50.520;30.486;2023-10-31T01:11:38;99724.13;;;15.24;72.79
45253;BME280;63171;50.520;30.486;2023-10-31T01:12:29;99714.44;;;15.25;72.83
45253;BME280;63171;50.520;30.486;2023-10-31T01:13:20;99718.03;;;15.24;72.75
45253;BME280;63171;50.520;30.486;2023-10-31T01:14:09;99714.78;;;15.20;72.69
45253;BME280;63171;50.520;30.486;2023-10-31T01:14:59;99719.94;;;15.22;72.65
45253;BME280;63171;50.520;30.486;2023-10-31T01:15:49;99718.72;;;15.26;72.71
45253;BME280;63171;50.520;30.486;2023-10-31T01:16:39;99714.16;;;15.28;72.68
45253;BME280;63171;50.520;30.486;2023-10-31T01:17:29;99718.34;;;15.30;72.72
45253;BME280;63171;50.520;30.486;2023-10-31T01:18:21;99712.78;;;15.33;72.76
45253;BME280;63171;50.520;30.486;2023-10-31T01:19:11;99710.69;;;15.27;72.58
45253;BME280;63171;50.520;30.486;2023-10-31T01:20:00;99713.94;;;15.20;72.61
45253;BME280;63171;50.520;30.486;2023-10-31T01:20:50;99718.66;;;15.16;72.50
45253;BME280;63171;50.520;30.486;2023-10-31T01:21:40;99718.41;;;15.19;72.39
45253;BME280;63171;50.520;30.486;2023-10-31T01:22:29;99719.22;;;15.20;72.57
45253;BME280;63171;50.520;30.486;2023-10-31T01:23:19;99713.50;;;15.15;72.42
45253;BME280;63171;50.520;30.486;2023-10-31T01:24:09;99717.63;;;15.07;72.30
45253;BME280;63171;50.520;30.486;2023-10-31T01:24:58;99713.00;;;15.00;72.10
45253;BME280;63171;50.520;30.486;2023-10-31T01:25:49;99721.88;;;14.99;72.24
45253;BME280;63171;50.520;30.486;2023-10-31T01:26:39;99713.34;;;14.95;72.19
45253;BME280;63171;50.520;30.486;2023-10-31T01:27:29;99722.50;;;14.91;72.35
45253;BME280;63171;50.520;30.486;2023-10-31T01:28:19;99727.75;;;14.91;72.12
45253;BME280;63171;50.520;30.486;2023-10-31T01:29:09;99710.41;;;14.89;72.31
45253;BME280;63171;50.520;30.486;2023-10-31T01:29:59;99715.53;;;14.90;72.31
45253;BME280;63171;50.520;30.486;2023-10-31T01:30:48;99719.16;;;14.89;72.40
45253;BME280;63171;50.520;30.486;2023-10-31T01:31:40;99714.97;;;14.87;72.25
45253;BME280;63171;50.520;30.486;2023-10-31T01:32:30;99725.38;;;14.88;72.39
45253;BME280;63171;50.520;30.486;2023-10-31T01:33:22;99727.19;;;14.88;72.33
45253;BME280;63171;50.520;30.486;2023-10-31T01:34:11;99727.50;;;14.94;72.65
45253;BME280;63171;50.520;30.486;2023-10-31T01:35:00;99732.53;;;14.97;72.66
45253;BME280;63171;50.520;30.486;2023-10-31T01:35:53;99733.69;;;15.04;72.86
45253;BME280;63171;50.520;30.486;2023-10-31T01:36:43;99729.38;;;15.03;72.91
45253;BME280;63171;50.520;30.486;2023-10-31T01:37:33;99736.97;;;14.97;72.83
45253;BME280;63171;50.520;30.486;2023-10-31T01:38:23;99732.03;;;15.03;73.00
45253;BME280;63171;50.520;30.486;2023-10-31T01:39:12;99729.13;;;15.06;73.12
45253;BME280;63171;50.520;30.486;2023-10-31T01:40:02;99725.28;;;15.11;73.11
45253;BME280;63171;50.520;30.486;2023-10-31T01:40:52;99734.88;;;15.12;73.12
45253;BME280;63171;50.520;30.486;2023-10-31T01:41:42;99735.31;;;15.17;73.31
45253;BME280;63171;50.520;30.486;2023-10-31T01:42:33;99742.41;;;15.16;73.24
45253;BME280;63171;50.520;30.486;2023-10-31T01:43:31;99734.34;;;15.18;73.38
45253;BME280;63171;50.520;30.486;2023-10-31T01:44:21;99737.13;;;15.16;73.26
45253;BME280;63171;50.520;30.486;2023-10-31T01:45:11;99730.88;;;15.17;73.46
45253;BME280;63171;50.520;30.486;2023-10-31T01:46:01;99728.81;;;15.21;73.57
45253;BME280;63171;50.520;30.486;2023-10-31T01:46:50;99733.84;;;15.24;73.63
45253;BME280;63171;50.520;30.486;2023-10-31T01:47:41;99728.59;;;15.24;73.57
45253;BME280;63171;50.520;30.486;2023-10-31T01:48:33;99735.53;;;15.25;73.67
45253;BME280;63171;50.520;30.486;2023-10-31T01:49:24;99735.06;;;15.20;73.50
45253;BME280;63171;50.520;30.486;2023-10-31T01:50:13;99734.09;;;15.21;73.58
45253;BME280;63171;50.520;30.486;2023-10-31T01:51:04;99732.91;;;15.25;73.71
45253;BME280;63171;50.520;30.486;2023-10-31T01:51:54;99730.81;;;15.28;73.75
45253;BME280;63171;50.520;30.486;2023-10-31T01:52:43;99729.72;;;15.31;73.69
45253;BME280;63171;50.520;30.486;2023-10-31T01:53:34;99723.31;;;15.24;73.58
45253;BME280;63171;50.520;30.486;2023-10-31T01:54:25;99724.13;;;15.24;73.47
45253;BME280;63171;50.520;30.486;2023-10-31T01:55:15;99727.97;;;15.20;73.53
45253;BME280;63171;50.520;30.486;2023-10-31T01:56:05;99722.47;;;15.23;73.44
45253;BME280;63171;50.520;30.486;2023-10-31T01:56:56;99730.38;;;15.23;73.48
45253;BME280;63171;50.520;30.486;2023-10-31T01:57:47;99730.38;;;15.23;73.47
45253;BME280;63171;50.520;30.486;2023-10-31T01:58:37;99725.88;;;15.14;73.21
45253;BME280;63171;50.520;30.486;2023-10-31T01:59:27;99717.63;;;15.07;73.14
45253;BME280;63171;50.520;30.486;2023-10-31T02:00:17;99716.91;;;15.05;73.08
45253;BME280;63171;50.520;30.486;2023-10-31T02:01:07;99718.41;;;14.98;72.97
45253;BME280;63171;50.520;30.486;2023-10-31T02:01:57;99723.41;;;15.01;73.15
45253;BME280;63171;50.520;30.486;2023-10-31T02:02:49;99721.47;;;15.03;73.17
45253;BME280;63171;50.520;30.486;2023-10-31T02:03:42;99721.47;;;15.03;73.05
45253;BME280;63171;50.520;30.486;2023-10-31T02:04:32;99730.22;;;15.04;73.14
45253;BME280;63171;50.520;30.486;2023-10-31T02:05:23;99730.22;;;15.04;73.10
45253;BME280;63171;50.520;30.486;2023-10-31T02:06:13;99734.09;;;15.00;72.92
45253;BME280;63171;50.520;30.486;2023-10-31T02:07:03;99730.88;;;14.96;73.01
45253;BME280;63171;50.520;30.486;2023-10-31T02:07:52;99736.38;;;14.93;72.94
45253;BME280;63171;50.520;30.486;2023-10-31T02:08:41;99735.94;;;14.88;72.85
45253;BME280;63171;50.520;30.486;2023-10-31T02:09:32;99735.47;;;14.83;72.79
45253;BME280;63171;50.520;30.486;2023-10-31T02:10:21;99735.59;;;14.82;72.83
45253;BME280;63171;50.520;30.486;2023-10-31T02:11:10;99733.06;;;14.80;72.85
45253;BME280;63171;50.520;30.486;2023-10-31T02:12:03;99741.69;;;14.82;72.85
45253;BME280;63171;50.520;30.486;2023-10-31T02:12:53;99739.53;;;14.87;73.04
45253;BME280;63171;50.520;30.486;2023-10-31T02:13:42;99733.59;;;14.95;73.17
45253;BME280;63171;50.520;30.486;2023-10-31T02:14:33;99735.06;;;14.99;73.21
45253;BME280;63171;50.520;30.486;2023-10-31T02:15:22;99735.88;;;14.99;73.21
45253;BME280;63171;50.520;30.486;2023-10-31T02:16:12;99733.88;;;14.92;73.31
45253;BME280;63171;50.520;30.486;2023-10-31T02:17:03;99729.13;;;14.86;73.21
45253;BME280;63171;50.520;30.486;2023-10-31T02:17:52;99723.63;;;14.77;73.01
45253;BME280;63171;50.520;30.486;2023-10-31T02:18:43;99735.13;;;14.76;73.13
45253;BME280;63171;50.520;30.486;2023-10-31T02:19:34;99730.59;;;14.67;73.04
45253;BME280;63171;50.520;30.486;2023-10-31T02:20:23;99730.97;;;14.63;73.01
45253;BME280;63171;50.520;30.486;2023-10-31T02:21:12;99728.94;;;14.66;73.20
45253;BME280;63171;50.520;30.486;2023-10-31T02:22:04;99736.25;;;14.63;73.24
45253;BME280;63171;50.520;30.486;2023-10-31T02:22:53;99737.34;;;14.60;73.17
45253;BME280;63171;50.520;30.486;2023-10-31T02:23:42;99735.53;;;14.61;73.26
45253;BME280;63171;50.520;30.486;2023-10-31T02:24:52;99738.16;;;14.72;73.61
45253;BME280;63171;50.520;30.486;2023-10-31T02:25:41;99730.69;;;14.77;73.80
45253;BME280;63171;50.520;30.486;2023-10-31T02:26:32;99731.16;;;14.82;73.88
45253;BME280;63171;50.520;30.486;2023-10-31T02:27:22;99733.72;;;14.72;73.86
45253;BME280;63171;50.520;30.486;2023-10-31T02:28:12;99720.69;;;14.60;73.80
45253;BME280;63171;50.520;30.486;2023-10-31T02:29:03;99726.81;;;14.49;73.85
45253;BME280;63171;50.520;30.486;2023-10-31T02:29:52;99727.19;;;14.56;74.01
45253;BME280;63171;50.520;30.486;2023-10-31T02:30:43;99719.88;;;14.48;74.10
45253;BME280;63171;50.520;30.486;2023-10-31T02:31:32;99720.97;;;14.45;74.19
45253;BME280;63171;50.520;30.486;2023-10-31T02:32:21;99718.91;;;14.49;74.30
45253;BME280;63171;50.520;30.486;2023-10-31T02:33:12;99722.84;;;14.55;74.62
45253;BME280;63171;50.520;30.486;2023-10-31T02:34:01;99720.22;;;14.55;74.62
45253;BME280;63171;50.520;30.486;2023-10-31T02:34:51;99720.94;;;14.57;74.91
45253;BME280;63171;50.520;30.486;2023-10-31T02:35:41;99724.88;;;14.62;75.10
45253;BME280;63171;50.520;30.486;2023-10-31T02:36:30;99723.66;;;14.66;75.28
45253;BME280;63171;50.520;30.486;2023-10-31T02:37:24;99721.25;;;14.74;75.56
45253;BME280;63171;50.520;30.486;2023-10-31T02:38:13;99721.00;;;14.77;75.61
45253;BME280;63171;50.520;30.486;2023-10-31T02:39:02;99722.78;;;14.77;75.69
45253;BME280;63171;50.520;30.486;2023-10-31T02:39:53;99720.03;;;14.78;75.79
45253;BME280;63171;50.520;30.486;2023-10-31T02:40:42;99715.72;;;14.77;75.90
45253;BME280;63171;50.520;30.486;2023-10-31T02:41:33;99712.94;;;14.79;75.90
45253;BME280;63171;50.520;30.486;2023-10-31T02:42:22;99717.78;;;14.74;75.90
45253;BME280;63171;50.520;30.486;2023-10-31T02:43:13;99713.22;;;14.76;76.08
45253;BME280;63171;50.520;30.486;2023-10-31T02:44:02;99707.47;;;14.71;75.81
45253;BME280;63171;50.520;30.486;2023-10-31T02:44:51;99715.13;;;14.74;76.09
45253;BME280;63171;50.520;30.486;2023-10-31T02:45:41;99710.97;;;14.71;76.02
45253;BME280;63171;50.520;30.486;2023-10-31T02:46:31;99708.44;;;14.70;76.02
45253;BME280;63171;50.520;30.486;2023-10-31T02:47:20;99716.34;;;14.70;76.06
45253;BME280;63171;50.520;30.486;2023-10-31T02:48:10;99712.16;;;14.67;75.95
45253;BME280;63171;50.520;30.486;2023-10-31T02:48:59;99716.34;;;14.70;76.15
45253;BME280;63171;50.520;30.486;2023-10-31T02:49:49;99714.66;;;14.69;76.03
45253;BME280;63171;50.520;30.486;2023-10-31T02:50:39;99717.69;;;14.64;75.99
45253;BME280;63171;50.520;30.486;2023-10-31T02:51:28;99718.38;;;14.66;76.05
45253;BME280;63171;50.520;30.486;2023-10-31T02:52:19;99712.53;;;14.63;76.01
45253;BME280;63171;50.520;30.486;2023-10-31T02:53:10;99709.91;;;14.63;75.93
45253;BME280;63171;50.520;30.486;2023-10-31T02:53:59;99714.34;;;14.62;76.06
45253;BME280;63171;50.520;30.486;2023-10-31T02:54:49;99717.81;;;14.63;75.98
45253;BME280;63171;50.520;30.486;2023-10-31T02:55:39;99721.53;;;14.60;75.89
45253;BME280;63171;50.520;30.486;2023-10-31T02:56:28;99715.28;;;14.61;75.94
45253;BME280;63171;50.520;30.486;2023-10-31T02:57:18;99717.09;;;14.61;76.01
45253;BME280;63171;50.520;30.486;2023-10-31T02:58:08;99719.03;;;14.59;76.06
45253;BME280;63171;50.520;30.486;2023-10-31T02:58:58;99719.50;;;14.53;75.90
45253;BME280;63171;50.520;30.486;2023-10-31T02:59:48;99713.78;;;14.47;76.05
45253;BME280;63171;50.520;30.486;2023-10-31T03:00:37;99714.03;;;14.44;76.07
45253;BME280;63171;50.520;30.486;2023-10-31T03:01:28;99713.06;;;14.45;76.08
45253;BME280;63171;50.520;30.486;2023-10-31T03:02:17;99709.78;;;14.42;76.15
45253;BME280;63171;50.520;30.486;2023-10-31T03:03:08;99704.06;;;14.37;76.29
45253;BME280;63171;50.520;30.486;2023-10-31T03:03:58;99712.34;;;14.32;76.19
45253;BME280;63171;50.520;30.486;2023-10-31T03:04:47;99715.47;;;14.26;76.35
45253;BME280;63171;50.520;30.486;2023-10-31T03:05:37;99709.72;;;14.21;76.23
45253;BME280;63171;50.520;30.486;2023-10-31T03:06:26;99706.97;;;14.11;76.44
45253;BME280;63171;50.520;30.486;2023-10-31T03:07:16;99704.84;;;14.16;76.70
45253;BME280;63171;50.520;30.486;2023-10-31T03:08:07;99704.47;;;14.21;76.80
45253;BME280;63171;50.520;30.486;2023-10-31T03:08:59;99707.09;;;14.21;77.05
45253;BME280;63171;50.520;30.486;2023-10-31T03:09:48;99704.09;;;14.14;77.11
45253;BME280;63171;50.520;30.486;2023-10-31T03:10:38;99698.97;;;14.13;77.33
45253;BME280;63171;50.520;30.486;2023-10-31T03:11:28;99709.88;;;14.08;77.27
45253;BME280;63171;50.520;30.486;2023-10-31T03:12:19;99706.66;;;14.05;77.39
45253;BME280;63171;50.520;30.486;2023-10-31T03:13:10;99711.41;;;14.00;77.63
45253;BME280;63171;50.520;30.486;2023-10-31T03:13:59;99714.56;;;13.94;77.78
45253;BME280;63171;50.520;30.486;2023-10-31T03:14:48;99705.94;;;13.92;78.07
45253;BME280;63171;50.520;30.486;2023-10-31T03:15:38;99712.38;;;13.87;78.14
45253;BME280;63171;50.520;30.486;2023-10-31T03:16:28;99714.78;;;13.79;78.23
45253;BME280;63171;50.520;30.486;2023-10-31T03:17:17;99708.81;;;13.77;78.45
45253;BME280;63171;50.520;30.486;2023-10-31T03:18:08;99713.00;;;13.80;78.79
45253;BME280;63171;50.520;30.486;2023-10-31T03:18:57;99711.44;;;13.77;78.99
45253;BME280;63171;50.520;30.486;2023-10-31T03:19:46;99710.81;;;13.74;79.20
45253;BME280;63171;50.520;30.486;2023-10-31T03:20:37;99709.28;;;13.71;79.28
45253;BME280;63171;50.520;30.486;2023-10-31T03:21:26;99704.97;;;13.70;79.37
45253;BME280;63171;50.520;30.486;2023-10-31T03:22:16;99711.06;;;13.71;79.66
45253;BME280;63171;50.520;30.486;2023-10-31T03:23:06;99710.59;;;13.66;79.55
45253;BME280;63171;50.520;30.486;2023-10-31T03:23:55;99703.28;;;13.69;80.04
45253;BME280;63171;50.520;30.486;2023-10-31T03:24:46;99706.88;;;13.68;80.17
45253;BME280;63171;50.520;30.486;2023-10-31T03:25:36;99708.22;;;13.63;80.15
45253;BME280;63171;50.520;30.486;2023-10-31T03:26:27;99703.78;;;13.63;80.43
45253;BME280;63171;50.520;30.486;2023-10-31T03:27:16;99704.25;;;13.68;80.61
45253;BME280;63171;50.520;30.486;2023-10-31T03:28:07;99708.69;;;13.68;80.71
45253;BME280;63171;50.520;30.486;2023-10-31T03:29:06;99716.56;;;13.68;80.90
45253;BME280;63171;50.520;30.486;2023-10-31T03:29:55;99715.88;;;13.66;81.11
45253;BME280;63171;50.520;30.486;2023-10-31T03:30:46;99713.34;;;13.64;81.17
45253;BME280;63171;50.520;30.486;2023-10-31T03:31:36;99715.84;;;13.54;81.16
45253;BME280;63171;50.520;30.486;2023-10-31T03:32:25;99713.78;;;13.47;81.25
45253;BME280;63171;50.520;30.486;2023-10-31T03:33:16;99709.47;;;13.46;81.27
45253;BME280;63171;50.520;30.486;2023-10-31T03:34:05;99712.84;;;13.48;81.54
45253;BME280;63171;50.520;30.486;2023-10-31T03:34:55;99711.03;;;13.48;81.78
45253;BME280;63171;50.520;30.486;2023-10-31T03:35:46;99703.38;;;13.45;81.72
45253;BME280;63171;50.520;30.486;2023-10-31T03:36:36;99699.31;;;13.41;81.86
45253;BME280;63171;50.520;30.486;2023-10-31T03:37:27;99710.69;;;13.42;81.88
45253;BME280;63171;50.520;30.486;2023-10-31T03:38:16;99710.22;;;13.37;82.10
45253;BME280;63171;50.520;30.486;2023-10-31T03:39:06;99708.41;;;13.37;82.15
45253;BME280;63171;50.520;30.486;2023-10-31T03:39:58;99717.97;;;13.38;82.29
45253;BME280;63171;50.520;30.486;2023-10-31T03:40:47;99714.50;;;13.38;82.41
45253;BME280;63171;50.520;30.486;2023-10-31T03:41:36;99716.66;;;13.44;82.55
45253;BME280;63171;50.520;30.486;2023-10-31T03:42:26;99710.56;;;13.43;82.61
45253;BME280;63171;50.520;30.486;2023-10-31T03:43:18;99718.09;;;13.37;82.85
45253;BME280;63171;50.520;30.486;2023-10-31T03:44:09;99723.44;;;13.35;82.87
45253;BME280;63171;50.520;30.486;2023-10-31T03:44:59;99719.50;;;13.29;82.84
45253;BME280;63171;50.520;30.486;2023-10-31T03:45:49;99709.22;;;13.26;83.08
45253;BME280;63171;50.520;30.486;2023-10-31T03:46:38;99706.59;;;13.26;83.13
45253;BME280;63171;50.520;30.486;2023-10-31T03:47:28;99707.31;;;13.28;83.30
45253;BME280;63171;50.520;30.486;2023-10-31T03:48:19;99713.78;;;13.36;83.54
45253;BME280;63171;50.520;30.486;2023-10-31T03:49:08;99721.31;;;13.40;83.70
45253;BME280;63171;50.520;30.486;2023-10-31T03:49:58;99715.94;;;13.42;83.83
45253;BME280;63171;50.520;30.486;2023-10-31T03:50:48;99726.72;;;13.50;83.96
45253;BME280;63171;50.520;30.486;2023-10-31T03:51:38;99714.19;;;13.53;84.25
45253;BME280;63171;50.520;30.486;2023-10-31T03:52:28;99712.13;;;13.57;84.43
45253;BME280;63171;50.520;30.486;2023-10-31T03:53:19;99713.81;;;13.58;84.50
45253;BME280;63171;50.520;30.486;2023-10-31T03:54:08;99721.47;;;13.61;84.55
45253;BME280;63171;50.520;30.486;2023-10-31T03:54:59;99720.75;;;13.59;84.60
45253;BME280;63171;50.520;30.486;2023-10-31T03:55:49;99718.63;;;13.64;84.71
45253;BME280;63171;50.520;30.486;2023-10-31T03:56:39;99711.69;;;13.63;84.74
45253;BME280;63171;50.520;30.486;2023-10-31T03:57:29;99723.03;;;13.64;84.71
45253;BME280;63171;50.520;30.486;2023-10-31T03:58:19;99720.03;;;13.57;84.57
45253;BME280;63171;50.520;30.486;2023-10-31T03:59:09;99719.31;;;13.55;84.56
45253;BME280;63171;50.520;30.486;2023-10-31T03:59:59;99718.47;;;13.54;84.72
45253;BME280;63171;50.520;30.486;2023-10-31T04:00:50;99720.88;;;13.57;84.76
45253;BME280;63171;50.520;30.486;2023-10-31T04:01:40;99709.63;;;13.55;84.58
45253;BME280;63171;50.520;30.486;2023-10-31T04:02:30;99711.41;;;13.55;84.79
45253;BME280;63171;50.520;30.486;2023-10-31T04:03:19;99706.66;;;13.49;84.71
45253;BME280;63171;50.520;30.486;2023-10-31T04:04:10;99723.25;;;13.49;84.61
45253;BME280;63171;50.520;30.486;2023-10-31T04:05:00;99708.66;;;13.45;84.75
45253;BME280;63171;50.520;30.486;2023-10-31T04:05:49;99711.03;;;13.37;84.61
45253;BME280;63171;50.520;30.486;2023-10-31T04:06:39;99704.91;;;13.25;84.31
45253;BME280;63171;50.520;30.486;2023-10-31T04:07:30;99712.19;;;13.22;84.49
45253;BME280;63171;50.520;30.486;2023-10-31T04:08:19;99712.69;;;13.27;84.46
45253;BME280;63171;50.520;30.486;2023-10-31T04:09:09;99717.72;;;13.30;84.61
45253;BME280;63171;50.520;30.486;2023-10-31T04:10:00;99707.06;;;13.31;84.89
45253;BME280;63171;50.520;30.486;2023-10-31T04:10:52;99715.44;;;13.25;84.71
45253;BME280;63171;50.520;30.486;2023-10-31T04:11:41;99700.00;;;13.21;84.79
45253;BME280;63171;50.520;30.486;2023-10-31T04:12:32;99713.47;;;13.16;84.62
45253;BME280;63171;50.520;30.486;2023-10-31T04:13:22;99714.09;;;13.20;84.87
45253;BME280;63171;50.520;30.486;2023-10-31T04:14:11;99709.78;;;13.19;84.86
45253;BME280;63171;50.520;30.486;2023-10-31T04:15:02;99708.09;;;13.18;84.88
45253;BME280;63171;50.520;30.486;2023-10-31T04:15:52;99706.41;;;13.17;84.91
45253;BME280;63171;50.520;30.486;2023-10-31T04:16:41;99710.63;;;13.19;84.94
45253;BME280;63171;50.520;30.486;2023-10-31T04:17:35;99702.75;;;13.19;85.14
45253;BME280;63171;50.520;30.486;2023-10-31T04:18:24;99699.16;;;13.20;85.26
45253;BME280;63171;50.520;30.486;2023-10-31T04:19:15;99688.13;;;13.15;85.17
45253;BME280;63171;50.520;30.486;2023-10-31T04:20:04;99694.47;;;13.13;85.16
45253;BME280;63171;50.520;30.486;2023-10-31T04:20:54;99700.19;;;13.18;85.45
45253;BME280;63171;50.520;30.486;2023-10-31T04:22:03;99704.13;;;13.12;85.26
45253;BME280;63171;50.520;30.486;2023-10-31T04:22:53;99697.09;;;13.13;85.26
45253;BME280;63171;50.520;30.486;2023-10-31T04:23:43;99699.47;;;13.16;85.31
45253;BME280;63171;50.520;30.486;2023-10-31T04:24:32;99701.78;;;13.20;85.53